Time;durP1;ratioP1;P1;durP2;ratioP2;P2;SDS_P1;SDS_P2;PMS_P1;PMS_P2;Temp;Humidity;BMP_temperature;BMP_pressure;BME280_temperature;BME280_humidity;BME280_pressure;Samples;Min_cycle;Max_cycle;Signal;HPM_P1;HPM_P2
2024/03/05 00:00:09;;;;;;;42.78;23.73;;;6.30;99.90;;;;;;5007212;28;20033;-66
2024/03/05 00:02:37;;;;;;;41.65;22.75;;;6.30;99.90;;;;;;5005931;28;20038;-67
2024/03/05 00:05:04;;;;;;;39.83;21.85;;;6.30;99.90;;;;;;5007105;28;20037;-73
2024/03/05 00:07:29;;;;;;;37.90;21.13;;;6.30;99.90;;;;;;5007077;28;20513;-67
2024/03/05 00:09:55;;;;;;;33.53;20.97;;;6.30;99.90;;;;;;5007146;28;20038;-65
2024/03/05 00:12:20;;;;;;;31.80;18.50;;;6.40;99.90;;;;;;5006764;28;20457;-66
2024/03/05 00:14:46;;;;;;;30.70;17.83;;;6.40;99.90;;;;;;5007029;28;20261;-66
2024/03/05 00:17:12;;;;;;;35.10;19.43;;;6.40;99.90;;;;;;5006675;28;20053;-66
2024/03/05 00:19:38;;;;;;;;;;;6.40;99.90;;;;;;5007093;28;20022;-66
2024/03/05 00:22:04;;;;;;;39.03;19.98;;;6.40;99.90;;;;;;5007045;28;20690;-72
2024/03/05 00:24:29;;;;;;;35.63;18.77;;;6.40;99.90;;;;;;5007137;28;20109;-66
2024/03/05 00:26:56;;;;;;;31.77;18.45;;;6.30;99.90;;;;;;5006753;28;20030;-69
2024/03/05 00:29:22;;;;;;;37.80;19.52;;;6.40;99.90;;;;;;5007078;28;20033;-67
2024/03/05 00:31:47;;;;;;;29.98;17.58;;;6.40;99.90;;;;;;5006996;28;20026;-66
2024/03/05 00:34:13;;;;;;;30.83;18.70;;;6.40;99.90;;;;;;5006231;28;20033;-66
2024/03/05 00:36:39;;;;;;;26.60;17.20;;;6.40;99.90;;;;;;5005808;28;20144;-66
2024/03/05 00:39:05;;;;;;;33.73;17.50;;;6.50;99.90;;;;;;5006543;28;20137;-71
2024/03/05 00:41:30;;;;;;;31.57;16.67;;;6.40;99.90;;;;;;5009123;28;20029;-66
2024/03/05 00:43:56;;;;;;;26.10;15.47;;;6.50;99.90;;;;;;5010450;28;20021;-66
2024/03/05 00:46:22;;;;;;;31.15;16.40;;;6.50;99.90;;;;;;5025389;28;20022;-66
2024/03/05 00:48:47;;;;;;;34.37;17.03;;;6.50;99.90;;;;;;5010259;28;20513;-65
2024/03/05 00:51:13;;;;;;;34.13;15.73;;;6.40;99.90;;;;;;5010011;28;20038;-78
2024/03/05 00:53:38;;;;;;;25.73;15.53;;;6.40;99.90;;;;;;4998829;28;20033;-72
2024/03/05 00:56:06;;;;;;;30.47;17.17;;;6.40;99.90;;;;;;4990670;28;20034;-68
2024/03/05 00:58:32;;;;;;;29.92;16.05;;;6.40;99.90;;;;;;4990588;28;20057;-67
2024/03/05 01:00:58;;;;;;;29.48;15.48;;;6.50;99.90;;;;;;4990713;28;20042;-68
2024/03/05 01:03:24;;;;;;;24.37;14.33;;;6.50;99.90;;;;;;4990349;28;20911;-66
2024/03/05 01:05:49;;;;;;;26.20;16.57;;;6.60;99.90;;;;;;4990390;28;20031;-67
2024/03/05 01:08:15;;;;;;;24.90;14.93;;;6.70;99.90;;;;;;4990332;28;20046;-66
2024/03/05 01:10:45;;;;;;;27.92;16.00;;;6.60;99.90;;;;;;4990329;28;20034;-68
2024/03/05 01:13:10;;;;;;;26.60;15.63;;;6.60;99.90;;;;;;4989852;28;20038;-67
2024/03/05 01:15:36;;;;;;;28.23;15.83;;;6.60;99.90;;;;;;5009364;28;20156;-85
2024/03/05 01:18:03;;;;;;;28.23;15.50;;;6.60;99.90;;;;;;5006555;28;20018;-66
2024/03/05 01:20:29;;;;;;;29.33;16.42;;;6.70;99.90;;;;;;5008980;28;20085;-65
2024/03/05 01:22:54;;;;;;;25.65;15.15;;;6.70;99.90;;;;;;5009708;28;20034;-66
2024/03/05 01:25:20;;;;;;;25.07;15.43;;;6.70;99.90;;;;;;5009160;28;20061;-65
2024/03/05 01:27:45;;;;;;;24.87;15.70;;;6.80;99.90;;;;;;5009565;28;20104;-68
2024/03/05 01:30:11;;;;;;;26.73;14.57;;;6.80;99.90;;;;;;5009260;28;20776;-70
2024/03/05 01:32:41;;;;;;;33.47;15.80;;;6.70;99.90;;;;;;5008823;28;20108;-75
2024/03/05 01:35:10;;;;;;;29.67;16.40;;;6.60;99.90;;;;;;5009050;28;20045;-81
2024/03/05 01:37:39;;;;;;;27.17;15.68;;;6.60;99.90;;;;;;5009421;28;20026;-79
2024/03/05 01:40:06;;;;;;;27.80;16.45;;;6.60;99.90;;;;;;5009170;28;20061;-83
2024/03/05 01:42:32;;;;;;;;;;;6.60;99.90;;;;;;5009570;28;20022;-79
2024/03/05 01:44:58;;;;;;;24.80;14.88;;;6.70;99.90;;;;;;5009091;28;19963;-83
2024/03/05 01:47:25;;;;;;;28.33;16.45;;;6.70;99.90;;;;;;5009076;28;20104;-69
2024/03/05 01:49:51;;;;;;;26.23;15.90;;;6.80;99.90;;;;;;5006992;28;20032;-67
2024/03/05 01:52:17;;;;;;;28.95;15.63;;;6.70;99.90;;;;;;5007348;28;20022;-66
2024/03/05 01:54:43;;;;;;;30.42;14.77;;;6.70;99.90;;;;;;4989905;28;20100;-77
2024/03/05 01:57:09;;;;;;;26.35;14.88;;;6.60;99.90;;;;;;4989341;28;20038;-75
2024/03/05 01:59:38;;;;;;;27.40;14.77;;;6.50;99.90;;;;;;4989325;28;20050;-75
2024/03/05 02:02:05;;;;;;;24.98;14.55;;;6.60;99.90;;;;;;4989689;28;20035;-73
2024/03/05 02:04:32;;;;;;;26.27;15.52;;;6.60;99.90;;;;;;4989534;28;20034;-66
2024/03/05 02:07:02;;;;;;;27.85;15.15;;;6.60;99.90;;;;;;4989395;28;20490;-66
2024/03/05 02:09:28;;;;;;;23.92;15.75;;;6.70;99.90;;;;;;4989961;28;20018;-81
2024/03/05 02:11:54;;;;;;;23.08;13.93;;;6.70;99.90;;;;;;4989222;28;20084;-71
2024/03/05 02:14:21;;;;;;;28.07;15.80;;;6.70;99.90;;;;;;5004232;28;20038;-77
2024/03/05 02:16:48;;;;;;;27.63;15.90;;;6.60;99.90;;;;;;4989235;28;20026;-73
2024/03/05 02:19:13;;;;;;;24.98;15.50;;;6.60;99.90;;;;;;5004589;28;20046;-74
2024/03/05 02:21:39;;;;;;;30.57;16.07;;;6.60;99.90;;;;;;4989338;28;20034;-70
2024/03/05 02:24:05;;;;;;;24.80;14.65;;;6.70;99.90;;;;;;4989422;28;20276;-66
2024/03/05 02:26:31;;;;;;;21.63;12.85;;;6.70;99.90;;;;;;4988742;28;20030;-70
2024/03/05 02:28:58;;;;;;;26.20;14.65;;;6.80;99.90;;;;;;4988725;28;20407;-68
2024/03/05 02:31:24;;;;;;;23.10;14.48;;;6.70;99.90;;;;;;4988843;28;20033;-66
2024/03/05 02:33:51;;;;;;;24.90;14.15;;;6.70;99.90;;;;;;4988601;28;20037;-68
2024/03/05 02:36:17;;;;;;;21.45;13.25;;;6.70;99.90;;;;;;4988774;28;20084;-66
2024/03/05 02:38:43;;;;;;;27.97;15.13;;;6.60;99.90;;;;;;4988923;28;20038;-67
2024/03/05 02:41:08;;;;;;;25.07;15.70;;;6.50;99.90;;;;;;5003832;28;20026;-67
2024/03/05 02:43:34;;;;;;;24.50;15.17;;;6.40;99.90;;;;;;4989166;28;20082;-66
2024/03/05 02:45:59;;;;;;;26.70;15.40;;;6.30;99.90;;;;;;4988724;28;20310;-65
2024/03/05 02:48:25;;;;;;;27.73;15.37;;;6.20;99.90;;;;;;4988889;28;20426;-66
2024/03/05 02:50:51;;;;;;;25.42;14.15;;;6.20;99.90;;;;;;4988808;28;20545;-66
2024/03/05 02:53:20;;;;;;;21.92;14.85;;;6.10;99.90;;;;;;4996850;28;20084;-66
2024/03/05 02:55:46;;;;;;;27.77;14.82;;;6.10;99.90;;;;;;5006575;28;20133;-66
2024/03/05 02:58:12;;;;;;;24.35;13.85;;;6.10;99.90;;;;;;5023086;28;20026;-69
2024/03/05 03:00:38;;;;;;;24.08;13.98;;;6.00;99.90;;;;;;5006682;28;20108;-80
2024/03/05 03:03:04;;;;;;;27.45;14.55;;;6.00;99.90;;;;;;5007590;28;20032;-66
2024/03/05 03:05:31;;;;;;;23.95;14.73;;;6.00;99.90;;;;;;5006123;28;20030;-80
2024/03/05 03:07:57;;;;;;;25.25;15.10;;;5.90;99.90;;;;;;5007085;28;20025;-65
2024/03/05 03:10:24;;;;;;;25.52;14.32;;;6.00;99.90;;;;;;5004257;28;20033;-66
2024/03/05 03:12:50;;;;;;;23.15;14.65;;;6.00;99.90;;;;;;4987947;28;20048;-66
2024/03/05 03:15:18;;;;;;;24.35;15.18;;;6.10;99.90;;;;;;4988209;28;20030;-66
2024/03/05 03:17:44;;;;;;;28.08;15.73;;;6.10;99.90;;;;;;4987565;28;20061;-66
2024/03/05 03:20:15;;;;;;;29.60;15.17;;;6.00;99.90;;;;;;4987933;28;20073;-66
2024/03/05 03:22:45;;;;;;;28.55;15.45;;;6.00;99.90;;;;;;4987612;28;20027;-66
2024/03/05 03:25:11;;;;;;;23.92;15.73;;;5.80;99.90;;;;;;4987760;28;20375;-65
2024/03/05 03:27:37;;;;;;;28.90;16.27;;;5.80;99.90;;;;;;4987770;28;20031;-66
2024/03/05 03:30:05;;;;;;;28.30;15.77;;;5.80;99.90;;;;;;5007310;28;20116;-65
2024/03/05 03:32:31;;;;;;;24.75;16.00;;;5.70;99.90;;;;;;5007393;28;20445;-67
2024/03/05 03:34:57;;;;;;;26.10;16.25;;;5.70;99.90;;;;;;5007610;28;20030;-65
2024/03/05 03:37:23;;;;;;;28.73;16.90;;;5.60;99.90;;;;;;5007839;28;20033;-68
2024/03/05 03:39:48;;;;;;;32.50;16.87;;;5.60;99.90;;;;;;5007088;28;20410;-71
2024/03/05 03:42:14;;;;;;;28.90;17.40;;;5.60;99.90;;;;;;5006770;28;20038;-66
2024/03/05 03:44:40;;;;;;;32.08;17.08;;;5.60;99.90;;;;;;5007712;28;20105;-69
2024/03/05 03:47:07;;;;;;;31.38;16.35;;;5.70;99.90;;;;;;5008400;28;20030;-80
2024/03/05 03:49:32;;;;;;;;;;;5.70;99.90;;;;;;5007710;28;20026;-82
2024/03/05 03:51:58;;;;;;;26.85;15.40;;;5.80;99.90;;;;;;5007018;28;19952;-70
2024/03/05 03:54:24;;;;;;;30.08;16.90;;;5.80;99.90;;;;;;4989954;28;20113;-69
2024/03/05 03:56:51;;;;;;;31.73;16.77;;;5.90;99.90;;;;;;4987396;28;20129;-81
2024/03/05 03:59:17;;;;;;;26.35;16.77;;;5.90;99.90;;;;;;4986952;28;20030;-66
2024/03/05 04:01:47;;;;;;;31.02;16.10;;;6.00;99.90;;;;;;4987736;28;20061;-76
2024/03/05 04:04:13;;;;;;;30.35;16.20;;;6.10;99.90;;;;;;4987509;28;20494;-72
2024/03/05 04:06:39;;;;;;;27.95;15.18;;;6.10;99.90;;;;;;4994749;28;20041;-68
2024/03/05 04:09:08;;;;;;;24.45;14.57;;;6.00;99.90;;;;;;4992550;28;20117;-73
2024/03/05 04:11:37;;;;;;;25.23;15.38;;;6.00;99.90;;;;;;4996880;28;20142;-72
2024/03/05 04:14:04;;;;;;;27.95;16.17;;;5.70;99.90;;;;;;4995857;28;20037;-76
2024/03/05 04:16:31;;;;;;;27.38;16.55;;;5.70;99.90;;;;;;4997370;28;20030;-70
2024/03/05 04:18:57;;;;;;;29.48;17.85;;;5.80;99.90;;;;;;4994400;28;20030;-69
2024/03/05 04:21:23;;;;;;;27.90;16.48;;;5.90;99.90;;;;;;5003433;28;20054;-66
2024/03/05 04:23:50;;;;;;;31.98;18.40;;;6.10;99.90;;;;;;4999424;28;20026;-72
2024/03/05 04:26:23;;;;;;;;;;;6.10;99.90;;;;;;4996222;28;20026;-73
2024/03/05 04:28:54;;;;;;;33.13;17.55;;;6.10;99.90;;;;;;4999881;28;19982;-72
2024/03/05 04:31:22;;;;;;;35.05;17.27;;;6.10;99.90;;;;;;5000985;28;20100;-69
2024/03/05 04:33:48;;;;;;;25.80;15.40;;;6.10;99.90;;;;;;4998729;28;20025;-66
2024/03/05 04:36:18;;;;;;;26.98;14.50;;;6.10;99.90;;;;;;4996520;28;20046;-72
2024/03/05 04:38:44;;;;;;;28.85;14.70;;;6.10;99.90;;;;;;4999133;28;20045;-75
2024/03/05 04:41:10;;;;;;;22.83;13.30;;;6.10;99.90;;;;;;4997300;28;20053;-67
2024/03/05 04:43:41;;;;;;;23.88;13.60;;;6.10;99.90;;;;;;5000018;28;20046;-66
2024/03/05 04:46:08;;;;;;;26.20;13.63;;;6.20;99.90;;;;;;5001197;28;20541;-67
2024/03/05 04:48:33;;;;;;;25.73;14.40;;;6.20;99.90;;;;;;5000655;28;20051;-68
2024/03/05 04:50:59;;;;;;;23.43;14.63;;;6.20;99.90;;;;;;5013831;28;20038;-70
2024/03/05 04:53:25;;;;;;;28.70;13.97;;;6.20;99.90;;;;;;5003608;28;20343;-69
2024/03/05 04:55:51;;;;;;;25.73;13.00;;;6.10;99.90;;;;;;5000248;28;20040;-67
2024/03/05 04:58:18;;;;;;;20.67;13.63;;;5.90;99.90;;;;;;5000145;28;20125;-66
2024/03/05 05:00:44;;;;;;;28.13;13.85;;;5.80;99.90;;;;;;4999588;28;20046;-72
2024/03/05 05:03:10;;;;;;;26.45;13.60;;;6.00;99.90;;;;;;4997273;28;20509;-70
2024/03/05 05:05:36;;;;;;;27.17;15.23;;;5.90;99.90;;;;;;4994317;28;20034;-66
2024/03/05 05:08:04;;;;;;;30.17;13.63;;;5.90;99.90;;;;;;5000139;28;20030;-77
2024/03/05 05:10:31;;;;;;;26.77;13.70;;;5.90;99.90;;;;;;4999680;28;20042;-74
2024/03/05 05:12:58;;;;;;;23.77;14.45;;;5.80;99.90;;;;;;5002672;28;20034;-72
2024/03/05 05:15:24;;;;;;;25.15;14.23;;;5.70;99.90;;;;;;4999913;28;20104;-76
2024/03/05 05:17:50;;;;;;;28.23;15.25;;;5.60;99.90;;;;;;4994462;28;20018;-71
2024/03/05 05:20:18;;;;;;;32.10;16.63;;;5.50;99.90;;;;;;5000039;28;20073;-72
2024/03/05 05:22:44;;;;;;;29.25;15.68;;;5.40;99.90;;;;;;5001981;28;20401;-66
2024/03/05 05:25:14;;;;;;;28.17;15.48;;;5.30;99.90;;;;;;4996287;28;20026;-68
2024/03/05 05:27:40;;;;;;;27.95;16.33;;;5.20;99.90;;;;;;5017805;28;20038;-71
2024/03/05 05:30:06;;;;;;;24.73;15.57;;;5.20;99.90;;;;;;5006611;28;20117;-65
2024/03/05 05:32:34;;;;;;;33.60;17.33;;;5.10;99.90;;;;;;5001729;28;20030;-70
2024/03/05 05:35:00;;;;;;;32.80;16.80;;;5.00;99.90;;;;;;5002519;28;20030;-67
2024/03/05 05:37:26;;;;;;;27.00;15.18;;;5.00;99.90;;;;;;5003279;28;20108;-68
2024/03/05 05:39:52;;;;;;;37.00;17.00;;;5.00;99.90;;;;;;4994140;28;20046;-67
2024/03/05 05:42:18;;;;;;;26.20;15.13;;;4.90;99.90;;;;;;5002891;28;20490;-74
2024/03/05 05:44:45;;;;;;;31.42;15.55;;;4.80;99.90;;;;;;5001051;28;20482;-66
2024/03/05 05:47:11;;;;;;;26.08;14.60;;;4.80;99.90;;;;;;5002223;28;20028;-75
2024/03/05 05:49:37;;;;;;;31.48;17.10;;;4.70;99.90;;;;;;5003806;28;20026;-74
2024/03/05 05:52:04;;;;;;;29.50;16.77;;;4.70;99.90;;;;;;5020647;28;20805;-79
2024/03/05 05:54:29;;;;;;;28.67;16.30;;;4.60;99.90;;;;;;4998598;28;20042;-68
2024/03/05 05:56:55;;;;;;;28.30;15.97;;;4.60;99.90;;;;;;5002273;28;20149;-65
2024/03/05 05:59:21;;;;;;;27.83;14.88;;;4.50;99.90;;;;;;5001003;28;20053;-66
2024/03/05 06:01:47;;;;;;;27.30;15.75;;;4.50;99.90;;;;;;5001993;28;20449;-66
2024/03/05 06:04:15;;;;;;;36.50;17.97;;;4.50;99.90;;;;;;5001620;28;20030;-68
2024/03/05 06:06:40;;;;;;;30.50;16.35;;;4.50;99.90;;;;;;4998814;28;20037;-70
2024/03/05 06:09:09;;;;;;;26.13;15.10;;;4.40;99.90;;;;;;5000469;28;20025;-65
2024/03/05 06:11:36;;;;;;;30.35;17.95;;;4.30;99.90;;;;;;5003048;28;20380;-66
2024/03/05 06:14:02;;;;;;;34.15;17.10;;;4.20;99.90;;;;;;5000355;28;20022;-66
2024/03/05 06:16:29;;;;;;;31.90;18.17;;;4.20;99.90;;;;;;5000051;28;20253;-67
2024/03/05 06:18:55;;;;;;;34.92;18.70;;;4.20;99.90;;;;;;5005088;28;20421;-68
2024/03/05 06:21:22;;;;;;;35.53;19.25;;;4.40;99.90;;;;;;5001964;28;20501;-66
2024/03/05 06:23:47;;;;;;;34.47;17.98;;;4.40;99.90;;;;;;5002632;28;20034;-66
2024/03/05 06:26:13;;;;;;;30.42;18.38;;;4.40;99.90;;;;;;5003904;28;20449;-73
2024/03/05 06:28:39;;;;;;;35.15;19.67;;;4.50;99.90;;;;;;5004582;28;20042;-72
2024/03/05 06:31:04;;;;;;;38.10;19.80;;;4.50;99.90;;;;;;4998437;28;20112;-71
2024/03/05 06:33:30;;;;;;;37.60;19.90;;;4.40;99.90;;;;;;5001911;28;20284;-70
2024/03/05 06:35:58;;;;;;;52.20;23.63;;;4.40;99.90;;;;;;4999129;28;20026;-66
2024/03/05 06:38:24;;;;;;;44.47;21.58;;;4.40;99.90;;;;;;4998009;28;20037;-66
2024/03/05 06:40:49;;;;;;;37.45;19.15;;;4.50;99.90;;;;;;5001679;28;20048;-67
2024/03/05 06:43:25;;;;;;;38.03;19.37;;;4.50;99.90;;;;;;5000439;28;20038;-66
2024/03/05 06:45:52;;;;;;;35.08;18.33;;;4.60;99.90;;;;;;4998888;28;20379;-67
2024/03/05 06:48:22;;;;;;;36.70;19.98;;;4.60;99.90;;;;;;5000044;28;20032;-68
2024/03/05 06:50:57;;;;;;;40.92;18.23;;;4.60;99.90;;;;;;5002356;28;20136;-68
2024/03/05 06:58:52;;;;;;;33.95;17.27;;;4.70;99.90;;;;;;5001206;28;20041;-70
2024/03/05 07:01:19;;;;;;;31.65;16.90;;;4.70;99.90;;;;;;5004096;28;20044;-70
2024/03/05 07:03:45;;;;;;;37.38;17.02;;;4.90;99.90;;;;;;5003770;28;20057;-69
2024/03/05 07:06:12;;;;;;;36.40;16.35;;;4.90;99.90;;;;;;5001284;28;20065;-75
2024/03/05 07:08:42;;;;;;;32.45;16.10;;;5.00;99.90;;;;;;4999816;28;20027;-70
2024/03/05 07:11:11;;;;;;;34.50;16.98;;;5.20;99.90;;;;;;4995655;28;20030;-76
2024/03/05 07:13:37;;;;;;;25.02;15.13;;;5.80;99.90;;;;;;4999189;28;20034;-71
2024/03/05 07:16:04;;;;;;;25.95;15.50;;;6.90;99.90;;;;;;4998342;28;20033;-72
2024/03/05 07:18:30;;;;;;;27.38;14.98;;;7.00;99.90;;;;;;4997575;28;20077;-76
2024/03/05 07:20:56;;;;;;;26.25;15.32;;;7.70;99.90;;;;;;4999948;28;20142;-71
2024/03/05 07:23:22;;;;;;;21.80;13.68;;;8.90;99.90;;;;;;5000250;28;20030;-75
2024/03/05 07:25:48;;;;;;;26.80;13.97;;;9.60;99.90;;;;;;5000976;28;20137;-72
2024/03/05 07:28:15;;;;;;;23.10;13.38;;;9.80;99.90;;;;;;5001713;28;20030;-71
2024/03/05 07:30:42;;;;;;;21.05;13.02;;;11.20;96.40;;;;;;5003779;28;20030;-68
2024/03/05 07:33:09;;;;;;;23.10;12.93;;;11.60;93.30;;;;;;5004607;28;20038;-75
2024/03/05 07:35:37;;;;;;;22.20;13.13;;;10.90;92.90;;;;;;4992133;28;20052;-68
2024/03/05 07:38:04;;;;;;;22.58;13.95;;;10.00;95.30;;;;;;4996713;28;20038;-71
2024/03/05 07:40:29;;;;;;;22.95;13.40;;;10.10;96.10;;;;;;4999645;28;20034;-67
2024/03/05 07:42:55;;;;;;;22.00;12.60;;;12.10;94.20;;;;;;4999795;28;20034;-74
2024/03/05 07:45:21;;;;;;;32.77;18.77;;;13.60;86.70;;;;;;5017233;28;20042;-72
2024/03/05 07:47:49;;;;;;;29.33;15.45;;;13.80;83.90;;;;;;4999923;28;20144;-67
2024/03/05 07:50:16;;;;;;;20.88;12.52;;;14.30;83.60;;;;;;5000380;28;20030;-67
2024/03/05 07:52:42;;;;;;;21.55;12.82;;;15.00;77.80;;;;;;5004277;28;20026;-70
2024/03/05 07:55:09;;;;;;;18.92;12.57;;;15.90;78.60;;;;;;5006536;28;20037;-76
2024/03/05 07:57:38;;;;;;;17.73;11.25;;;16.20;77.20;;;;;;4998753;28;20409;-67
2024/03/05 08:00:14;;;;;;;20.17;12.35;;;17.50;72.50;;;;;;5004782;28;20038;-68
2024/03/05 08:02:46;;;;;;;18.10;11.00;;;17.20;72.20;;;;;;4997584;28;20465;-70
2024/03/05 08:05:23;;;;;;;27.58;12.10;;;17.80;71.40;;;;;;4999232;28;20494;-71
2024/03/05 08:07:53;;;;;;;23.23;12.68;;;16.70;72.00;;;;;;5018443;28;20034;-69
2024/03/05 08:10:19;;;;;;;17.80;12.00;;;18.10;71.30;;;;;;5001326;28;20088;-75
2024/03/05 08:12:47;;;;;;;20.80;13.13;;;19.30;68.90;;;;;;5001387;28;20045;-67
2024/03/05 08:15:17;;;;;;;22.02;13.20;;;20.40;65.00;;;;;;4997246;28;20880;-67
2024/03/05 08:17:47;;;;;;;17.48;12.35;;;21.10;62.30;;;;;;4999742;28;20036;-71
2024/03/05 08:20:21;;;;;;;21.20;12.10;;;22.60;59.60;;;;;;4998814;28;20042;-69
2024/03/05 08:22:47;;;;;;;19.95;11.63;;;22.10;59.40;;;;;;4999126;28;20414;-69
2024/03/05 08:25:15;;;;;;;;;;;22.10;61.50;;;;;;4997466;28;20030;-69
2024/03/05 08:27:51;;;;;;;17.02;11.20;;;21.20;60.20;;;;;;5001411;28;19964;-67
2024/03/05 08:30:18;;;;;;;14.85;11.27;;;19.80;60.70;;;;;;5000189;28;20037;-74
2024/03/05 08:32:44;;;;;;;17.80;10.13;;;21.20;60.80;;;;;;5001360;28;20071;-74
2024/03/05 08:35:11;;;;;;;16.27;10.30;;;20.50;60.70;;;;;;4992080;28;20030;-70
2024/03/05 08:37:41;;;;;;;13.70;9.38;;;22.50;58.30;;;;;;4998772;28;20272;-69
2024/03/05 08:40:14;;;;;;;21.70;12.20;;;23.60;55.90;;;;;;5001209;28;20038;-72
2024/03/05 08:42:43;;;;;;;20.38;12.73;;;22.70;55.00;;;;;;4992861;28;20034;-72
2024/03/05 08:45:19;;;;;;;13.93;10.38;;;23.80;56.00;;;;;;5002298;28;20033;-69
2024/03/05 08:47:47;;;;;;;15.75;9.68;;;20.70;55.30;;;;;;4997277;28;20038;-73
2024/03/05 08:50:13;;;;;;;16.73;9.95;;;19.70;59.70;;;;;;4999778;28;20061;-68
2024/03/05 08:52:42;;;;;;;16.35;10.60;;;18.60;61.80;;;;;;5000248;28;20532;-71
2024/03/05 08:55:08;;;;;;;13.77;9.10;;;19.60;62.30;;;;;;5003905;28;20089;-69
2024/03/05 08:57:36;;;;;;;14.38;9.95;;;22.00;57.90;;;;;;4993985;28;20030;-68
2024/03/05 09:00:06;;;;;;;13.68;9.20;;;22.30;55.10;;;;;;4999966;28;20533;-68
2024/03/05 09:02:32;;;;;;;16.65;9.90;;;23.10;55.80;;;;;;5000693;28;20033;-70
2024/03/05 09:04:58;;;;;;;17.10;9.90;;;24.10;54.00;;;;;;4999610;28;20092;-75
2024/03/05 09:07:24;;;;;;;16.83;9.18;;;24.60;53.10;;;;;;5000107;28;20258;-71
2024/03/05 09:09:50;;;;;;;;;;;25.10;52.80;;;;;;4998882;28;20037;-68
2024/03/05 09:12:15;;;;;;;12.98;8.38;;;25.40;51.10;;;;;;4998511;28;19913;-68
2024/03/05 09:14:42;;;;;;;10.68;6.90;;;25.70;52.70;;;;;;5002334;28;20541;-70
2024/03/05 09:17:10;;;;;;;12.38;7.10;;;26.40;49.40;;;;;;5014047;28;20049;-69
2024/03/05 09:19:36;;;;;;;9.48;7.07;;;26.60;50.10;;;;;;4999373;28;20061;-68
2024/03/05 09:22:05;;;;;;;12.57;7.32;;;26.50;49.90;;;;;;5000522;28;20041;-70
2024/03/05 09:24:32;;;;;;;9.38;7.00;;;27.00;49.80;;;;;;5000382;28;20506;-70
2024/03/05 09:27:05;;;;;;;9.38;5.95;;;27.00;48.20;;;;;;5005478;28;20038;-68
2024/03/05 09:29:31;;;;;;;10.07;5.82;;;27.20;50.10;;;;;;4998605;28;20037;-73
2024/03/05 09:31:57;;;;;;;6.80;4.85;;;28.20;49.10;;;;;;5000434;28;20035;-72
2024/03/05 09:34:23;;;;;;;5.72;3.58;;;28.40;48.70;;;;;;5000635;28;20040;-68
2024/03/05 09:36:49;;;;;;;7.07;4.80;;;26.50;47.70;;;;;;4995115;28;20105;-74
2024/03/05 09:39:16;;;;;;;6.63;4.43;;;25.10;49.10;;;;;;5002758;28;20038;-71
2024/03/05 09:41:44;;;;;;;10.35;4.53;;;21.20;53.30;;;;;;5003186;28;20065;-70
2024/03/05 09:44:10;;;;;;;12.88;6.50;;;20.30;56.70;;;;;;5006049;28;20091;-68
2024/03/05 09:46:38;;;;;;;;;;;19.60;58.60;;;;;;5004781;28;20041;-69
2024/03/05 09:49:11;;;;;;;7.53;5.22;;;22.00;56.90;;;;;;5006681;28;19925;-73
2024/03/05 09:51:40;;;;;;;7.97;4.95;;;21.50;56.80;;;;;;4997084;28;20030;-78
2024/03/05 09:54:12;;;;;;;8.15;4.78;;;21.90;55.40;;;;;;5007151;28;20401;-73
2024/03/05 09:56:46;;;;;;;8.63;5.25;;;19.60;58.60;;;;;;5005490;28;20033;-76
2024/03/05 09:59:14;;;;;;;7.38;5.38;;;19.30;59.90;;;;;;5003596;28;20049;-70
2024/03/05 10:01:41;;;;;;;10.15;5.68;;;19.10;60.60;;;;;;5007067;28;20046;-76
2024/03/05 10:04:11;;;;;;;7.95;5.38;;;19.40;60.30;;;;;;5006298;28;20025;-67
2024/03/05 10:06:38;;;;;;;8.50;5.55;;;19.90;60.10;;;;;;5006559;28;20037;-70
2024/03/05 10:09:05;;;;;;;7.63;5.28;;;18.40;62.70;;;;;;5012680;28;20030;-68
2024/03/05 10:11:31;;;;;;;8.15;4.38;;;18.20;63.30;;;;;;4998019;28;20038;-68
2024/03/05 10:14:05;;;;;;;6.03;4.00;;;17.50;63.10;;;;;;4998296;28;20041;-67
2024/03/05 10:16:31;;;;;;;7.93;5.07;;;17.60;63.40;;;;;;5005105;28;20125;-67
2024/03/05 10:18:56;;;;;;;7.67;4.80;;;17.50;65.00;;;;;;4996466;28;20110;-69
2024/03/05 10:21:24;;;;;;;8.23;4.23;;;17.10;65.40;;;;;;4997427;28;20145;-67
2024/03/05 10:23:57;;;;;;;6.25;4.50;;;16.60;65.60;;;;;;4999524;28;20128;-67
2024/03/05 10:26:27;;;;;;;8.50;4.00;;;16.10;65.20;;;;;;5001532;28;20026;-70
2024/03/05 10:29:13;;;;;;;3.45;2.20;;;16.20;68.40;;;;;;4996972;28;20026;-67
2024/03/05 10:31:46;;;;;;;6.60;2.17;;;16.10;64.20;;;;;;4999735;28;20915;-67
2024/03/05 10:34:21;;;;;;;2.53;1.77;;;15.70;65.30;;;;;;5058401;28;20462;-66
2024/03/05 10:36:47;;;;;;;3.83;2.03;;;15.40;65.60;;;;;;5052146;28;20041;-65
2024/03/05 10:39:13;;;;;;;6.05;2.72;;;15.40;68.00;;;;;;5053185;28;20024;-65
2024/03/05 10:41:41;;;;;;;4.03;2.27;;;15.10;68.90;;;;;;5054061;28;20057;-66
2024/03/05 10:44:08;;;;;;;5.05;1.50;;;14.60;69.70;;;;;;5053433;28;20082;-71
2024/03/05 10:46:35;;;;;;;2.33;1.83;;;14.80;68.00;;;;;;5053236;28;20040;-66
2024/03/05 10:49:07;;;;;;;6.15;1.90;;;14.60;69.50;;;;;;5053388;28;20108;-71
2024/03/05 10:51:38;;;;;;;82.65;7.82;;;14.60;69.90;;;;;;5041765;28;20063;-73
2024/03/05 10:54:05;;;;;;;47.88;4.72;;;14.50;69.60;;;;;;5053631;28;20516;-67
2024/03/05 10:56:32;;;;;;;3.58;1.60;;;14.50;69.90;;;;;;5054624;28;20100;-67
2024/03/05 11:01:43;;;;;;;4.40;2.03;;;14.10;71.20;;;;;;5049262;28;20874;-71
2024/03/05 11:04:22;;;;;;;7.38;1.38;;;14.00;73.30;;;;;;5053655;28;20536;-69
2024/03/05 11:06:54;;;;;;;3.60;1.20;;;13.70;72.90;;;;;;5054626;28;20032;-71
2024/03/05 11:09:21;;;;;;;3.25;1.23;;;13.40;73.60;;;;;;5053757;28;20021;-68
2024/03/05 11:12:16;;;;;;;1.52;0.77;;;13.00;76.20;;;;;;5051081;28;20143;-74
2024/03/05 11:14:45;;;;;;;3.10;1.30;;;12.30;79.50;;;;;;5049263;28;20110;-71
2024/03/05 11:17:11;;;;;;;1.85;0.95;;;11.60;82.10;;;;;;5051985;28;20044;-75
2024/03/05 11:19:39;;;;;;;2.42;1.02;;;11.10;87.00;;;;;;5049946;28;20043;-70
2024/03/05 11:22:25;;;;;;;7.40;1.30;;;11.10;88.70;;;;;;5050053;28;20029;-71
2024/03/05 11:25:01;;;;;;;13.87;1.73;;;11.00;91.20;;;;;;5051422;28;20555;-74
2024/03/05 11:27:31;;;;;;;1.63;0.70;;;11.00;91.10;;;;;;5052607;28;20033;-67
2024/03/05 11:30:20;;;;;;;2.28;0.90;;;11.00;85.70;;;;;;5040405;28;20997;-66
2024/03/05 11:32:50;;;;;;;3.03;0.90;;;10.60;92.10;;;;;;5040420;28;20146;-68
2024/03/05 11:35:18;;;;;;;2.05;1.10;;;10.70;92.50;;;;;;5043031;28;20104;-70
2024/03/05 11:37:52;;;;;;;3.28;1.20;;;11.10;92.20;;;;;;5053220;28;20029;-66
2024/03/05 11:40:22;;;;;;;2.78;0.95;;;10.90;95.70;;;;;;5051238;28;20573;-67
2024/03/05 11:42:48;;;;;;;4.13;1.70;;;10.70;98.40;;;;;;5049378;28;20040;-67
2024/03/05 11:45:51;;;;;;;4.87;1.77;;;11.10;97.40;;;;;;5042322;28;20561;-67
2024/03/05 11:48:22;;;;;;;4.75;1.33;;;11.20;95.60;;;;;;5038258;28;20267;-68
2024/03/05 11:50:52;;;;;;;6.78;1.98;;;11.30;94.40;;;;;;5037067;28;20412;-67
2024/03/05 11:53:18;;;;;;;3.80;1.80;;;11.50;94.40;;;;;;5038806;28;20064;-68
2024/03/05 11:55:44;;;;;;;3.63;1.70;;;11.50;92.90;;;;;;5030719;28;20489;-66
2024/03/05 11:58:10;;;;;;;9.82;1.85;;;11.50;93.10;;;;;;5029415;28;20509;-67
2024/03/05 12:00:36;;;;;;;;;;;11.40;93.00;;;;;;5031964;28;20501;-67
2024/03/05 12:03:09;;;;;;;2.25;1.20;;;11.60;93.00;;;;;;5034593;28;19909;-66
2024/03/05 12:05:41;;;;;;;6.60;1.40;;;11.70;91.30;;;;;;5031594;28;20032;-67
2024/03/05 12:08:07;;;;;;;5.45;1.55;;;12.00;91.30;;;;;;5030736;28;20575;-66
2024/03/05 12:10:39;;;;;;;4.40;1.67;;;12.30;91.80;;;;;;5056385;28;20120;-68
2024/03/05 12:13:05;;;;;;;2.78;1.30;;;12.40;90.00;;;;;;5035135;28;20040;-66
2024/03/05 12:15:35;;;;;;;5.60;1.50;;;12.60;89.60;;;;;;5043022;28;20041;-66
2024/03/05 12:18:10;;;;;;;2.95;1.55;;;12.70;88.70;;;;;;5038011;28;20060;-66
2024/03/05 12:20:42;;;;;;;3.95;1.00;;;12.60;89.40;;;;;;5036240;28;20063;-67
2024/03/05 12:23:08;;;;;;;6.30;1.13;;;12.90;89.80;;;;;;5036089;28;20101;-66
2024/03/05 12:25:35;;;;;;;2.65;1.30;;;13.00;87.70;;;;;;5038855;28;20079;-66
2024/03/05 12:28:00;;;;;;;5.75;1.60;;;13.00;87.30;;;;;;5039692;28;20025;-67
2024/03/05 12:30:33;;;;;;;6.90;1.48;;;12.90;86.90;;;;;;5039008;28;20025;-66
2024/03/05 12:33:00;;;;;;;9.55;1.63;;;13.10;87.30;;;;;;5032939;28;20156;-66
2024/03/05 12:35:27;;;;;;;8.00;1.90;;;13.40;89.00;;;;;;5030551;28;20504;-66
2024/03/05 12:37:52;;;;;;;;;;;13.50;84.90;;;;;;5038949;28;20033;-66
2024/03/05 12:40:20;;;;;;;3.00;1.45;;;13.40;84.90;;;;;;5037116;28;20293;-66
2024/03/05 12:42:48;;;;;;;5.80;1.70;;;13.40;84.50;;;;;;5038083;28;20076;-67
2024/03/05 12:45:18;;;;;;;4.05;2.40;;;13.20;85.20;;;;;;5036357;28;20032;-68
2024/03/05 12:47:58;;;;;;;7.45;2.25;;;13.40;88.00;;;;;;5039283;28;20054;-66
2024/03/05 12:50:23;;;;;;;3.10;1.67;;;13.90;88.10;;;;;;5039278;28;20033;-67